sensor_id;sensor_type;location;lat;lon;timestamp;temperature;humidity
37002;DHT22;22913;51.910;8.374;2022-07-10T00:01:31;15.50;99.90
37002;DHT22;22913;51.910;8.374;2022-07-10T00:04:16;15.40;99.90
37002;DHT22;22913;51.910;8.374;2022-07-10T00:07:04;15.30;99.90
37002;DHT22;22913;51.910;8.374;2022-07-10T00:09:50;15.30;99.90
37002;DHT22;22913;51.910;8.374;2022-07-10T00:12:36;15.30;99.90
37002;DHT22;22913;51.910;8.374;2022-07-10T00:15:21;15.20;99.90
37002;DHT22;22913;51.910;8.374;2022-07-10T00:18:07;15.20;99.90
37002;DHT22;22913;51.910;8.374;2022-07-10T00:20:52;15.10;99.90
37002;DHT22;22913;51.910;8.374;2022-07-10T00:23:39;15.10;99.90
37002;DHT22;22913;51.910;8.374;2022-07-10T00:26:25;15.10;99.90
37002;DHT22;22913;51.910;8.374;2022-07-10T00:29:10;15.20;99.90
37002;DHT22;22913;51.910;8.374;2022-07-10T00:31:56;15.20;99.90
37002;DHT22;22913;51.910;8.374;2022-07-10T00:34:42;15.10;99.90
37002;DHT22;22913;51.910;8.374;2022-07-10T00:37:27;15.10;99.90
37002;DHT22;22913;51.910;8.374;2022-07-10T00:40:15;15.20;99.90
37002;DHT22;22913;51.910;8.374;2022-07-10T00:43:00;15.10;99.90
37002;DHT22;22913;51.910;8.374;2022-07-10T00:45:46;15.10;99.90
37002;DHT22;22913;51.910;8.374;2022-07-10T00:48:31;15.10;99.90
37002;DHT22;22913;51.910;8.374;2022-07-10T00:51:18;15.10;99.90
37002;DHT22;22913;51.910;8.374;2022-07-10T00:54:05;15.10;99.90
37002;DHT22;22913;51.910;8.374;2022-07-10T00:56:53;15.00;99.90
37002;DHT22;22913;51.910;8.374;2022-07-10T00:59:39;15.00;99.90
37002;DHT22;22913;51.910;8.374;2022-07-10T01:02:24;15.00;99.90
37002;DHT22;22913;51.910;8.374;2022-07-10T01:05:10;15.00;99.90
37002;DHT22;22913;51.910;8.374;2022-07-10T01:07:56;14.90;99.90
37002;DHT22;22913;51.910;8.374;2022-07-10T01:10:41;15.00;99.90
37002;DHT22;22913;51.910;8.374;2022-07-10T01:13:29;14.90;99.90
37002;DHT22;22913;51.910;8.374;2022-07-10T01:16:16;14.90;99.90
37002;DHT22;22913;51.910;8.374;2022-07-10T01:19:03;14.90;99.90
37002;DHT22;22913;51.910;8.374;2022-07-10T01:21:51;14.80;99.90
37002;DHT22;22913;51.910;8.374;2022-07-10T01:24:37;14.80;99.90
37002;DHT22;22913;51.910;8.374;2022-07-10T01:27:23;14.80;99.90
37002;DHT22;22913;51.910;8.374;2022-07-10T01:30:09;14.80;99.90
37002;DHT22;22913;51.910;8.374;2022-07-10T01:32:55;14.80;99.90
37002;DHT22;22913;51.910;8.374;2022-07-10T01:35:41;14.80;99.90
37002;DHT22;22913;51.910;8.374;2022-07-10T01:38:28;14.80;99.90
37002;DHT22;22913;51.910;8.374;2022-07-10T01:41:14;14.70;99.90
37002;DHT22;22913;51.910;8.374;2022-07-10T01:44:00;14.70;99.90
37002;DHT22;22913;51.910;8.374;2022-07-10T01:46:46;14.70;99.90
37002;DHT22;22913;51.910;8.374;2022-07-10T01:49:32;14.60;99.90
37002;DHT22;22913;51.910;8.374;2022-07-10T01:52:18;14.60;99.90
37002;DHT22;22913;51.910;8.374;2022-07-10T01:55:06;14.60;99.90
37002;DHT22;22913;51.910;8.374;2022-07-10T01:57:52;14.60;99.90
37002;DHT22;22913;51.910;8.374;2022-07-10T02:00:38;14.70;99.90
37002;DHT22;22913;51.910;8.374;2022-07-10T02:03:24;14.60;99.90
37002;DHT22;22913;51.910;8.374;2022-07-10T02:06:27;14.60;99.90
37002;DHT22;22913;51.910;8.374;2022-07-10T02:09:13;14.60;99.90
37002;DHT22;22913;51.910;8.374;2022-07-10T02:12:00;14.60;99.90
37002;DHT22;22913;51.910;8.374;2022-07-10T02:14:46;14.50;99.90
37002;DHT22;22913;51.910;8.374;2022-07-10T02:17:32;14.60;99.90
37002;DHT22;22913;51.910;8.374;2022-07-10T02:20:18;14.50;99.90
37002;DHT22;22913;51.910;8.374;2022-07-10T02:23:03;14.60;99.90
37002;DHT22;22913;51.910;8.374;2022-07-10T02:25:50;14.60;99.90
37002;DHT22;22913;51.910;8.374;2022-07-10T02:28:37;14.50;99.90
37002;DHT22;22913;51.910;8.374;2022-07-10T02:31:23;14.50;99.90
37002;DHT22;22913;51.910;8.374;2022-07-10T02:34:09;14.60;99.90
37002;DHT22;22913;51.910;8.374;2022-07-10T02:36:54;14.50;99.90
37002;DHT22;22913;51.910;8.374;2022-07-10T02:39:40;14.60;99.90
37002;DHT22;22913;51.910;8.374;2022-07-10T02:42:26;14.50;99.90
37002;DHT22;22913;51.910;8.374;2022-07-10T02:45:13;14.40;99.90
37002;DHT22;22913;51.910;8.374;2022-07-10T02:47:58;14.50;99.90
37002;DHT22;22913;51.910;8.374;2022-07-10T02:50:44;14.50;99.90
37002;DHT22;22913;51.910;8.374;2022-07-10T02:53:30;14.50;99.90
37002;DHT22;22913;51.910;8.374;2022-07-10T02:56:16;14.40;99.90
37002;DHT22;22913;51.910;8.374;2022-07-10T02:59:01;14.50;99.90
37002;DHT22;22913;51.910;8.374;2022-07-10T03:01:48;14.50;99.90
37002;DHT22;22913;51.910;8.374;2022-07-10T03:04:34;14.40;99.90
37002;DHT22;22913;51.910;8.374;2022-07-10T03:07:20;14.40;99.90
37002;DHT22;22913;51.910;8.374;2022-07-10T03:10:06;14.40;99.90
37002;DHT22;22913;51.910;8.374;2022-07-10T03:12:52;14.40;99.90
37002;DHT22;22913;51.910;8.374;2022-07-10T03:15:38;14.30;99.90
37002;DHT22;22913;51.910;8.374;2022-07-10T03:18:25;14.30;99.90
37002;DHT22;22913;51.910;8.374;2022-07-10T03:21:10;14.30;99.90
37002;DHT22;22913;51.910;8.374;2022-07-10T03:23:56;14.30;99.90
37002;DHT22;22913;51.910;8.374;2022-07-10T03:26:42;14.30;99.90
37002;DHT22;22913;51.910;8.374;2022-07-10T03:29:29;14.30;99.90
37002;DHT22;22913;51.910;8.374;2022-07-10T03:32:14;14.30;99.90
37002;DHT22;22913;51.910;8.374;2022-07-10T03:35:01;14.30;99.90
37002;DHT22;22913;51.910;8.374;2022-07-10T03:37:47;14.30;99.90
37002;DHT22;22913;51.910;8.374;2022-07-10T03:40:33;14.30;99.90
37002;DHT22;22913;51.910;8.374;2022-07-10T03:43:18;14.30;99.90
37002;DHT22;22913;51.910;8.374;2022-07-10T03:46:04;14.20;99.90
37002;DHT22;22913;51.910;8.374;2022-07-10T03:48:50;14.20;99.90
37002;DHT22;22913;51.910;8.374;2022-07-10T03:51:37;14.30;99.90
37002;DHT22;22913;51.910;8.374;2022-07-10T03:54:22;14.20;99.90
37002;DHT22;22913;51.910;8.374;2022-07-10T03:57:08;14.20;99.90
37002;DHT22;22913;51.910;8.374;2022-07-10T04:00:12;14.20;99.90
37002;DHT22;22913;51.910;8.374;2022-07-10T04:02:59;14.20;99.90
37002;DHT22;22913;51.910;8.374;2022-07-10T04:05:45;14.20;99.90
37002;DHT22;22913;51.910;8.374;2022-07-10T04:08:32;14.20;99.90
37002;DHT22;22913;51.910;8.374;2022-07-10T04:11:18;14.20;99.90
37002;DHT22;22913;51.910;8.374;2022-07-10T04:14:03;14.20;99.90
37002;DHT22;22913;51.910;8.374;2022-07-10T04:16:49;14.20;99.90
37002;DHT22;22913;51.910;8.374;2022-07-10T04:19:34;14.20;99.90
37002;DHT22;22913;51.910;8.374;2022-07-10T04:22:20;14.20;99.90
37002;DHT22;22913;51.910;8.374;2022-07-10T04:25:08;14.20;99.90
37002;DHT22;22913;51.910;8.374;2022-07-10T04:27:54;14.20;99.90
37002;DHT22;22913;51.910;8.374;2022-07-10T04:30:39;14.20;99.90
37002;DHT22;22913;51.910;8.374;2022-07-10T04:33:25;14.20;99.90
37002;DHT22;22913;51.910;8.374;2022-07-10T04:36:11;14.20;99.90
37002;DHT22;22913;51.910;8.374;2022-07-10T04:38:57;14.20;99.90
37002;DHT22;22913;51.910;8.374;2022-07-10T04:41:44;14.20;99.90
37002;DHT22;22913;51.910;8.374;2022-07-10T04:44:29;14.30;99.90
37002;DHT22;22913;51.910;8.374;2022-07-10T04:47:15;14.30;99.90
37002;DHT22;22913;51.910;8.374;2022-07-10T04:50:01;14.30;99.90
37002;DHT22;22913;51.910;8.374;2022-07-10T04:52:46;14.40;99.90
37002;DHT22;22913;51.910;8.374;2022-07-10T04:55:32;14.40;99.90
37002;DHT22;22913;51.910;8.374;2022-07-10T04:58:19;14.50;99.90
37002;DHT22;22913;51.910;8.374;2022-07-10T05:01:05;14.50;99.90
37002;DHT22;22913;51.910;8.374;2022-07-10T05:03:50;14.40;99.90
37002;DHT22;22913;51.910;8.374;2022-07-10T05:06:36;14.40;99.90
37002;DHT22;22913;51.910;8.374;2022-07-10T05:09:21;14.40;99.90
37002;DHT22;22913;51.910;8.374;2022-07-10T05:12:07;14.40;99.90
37002;DHT22;22913;51.910;8.374;2022-07-10T05:14:54;14.40;99.90
37002;DHT22;22913;51.910;8.374;2022-07-10T05:17:40;14.40;99.90
37002;DHT22;22913;51.910;8.374;2022-07-10T05:20:25;14.40;99.90
37002;DHT22;22913;51.910;8.374;2022-07-10T05:23:11;14.40;99.90
37002;DHT22;22913;51.910;8.374;2022-07-10T05:25:56;14.50;99.90
37002;DHT22;22913;51.910;8.374;2022-07-10T05:28:42;14.50;99.90
37002;DHT22;22913;51.910;8.374;2022-07-10T05:31:29;14.50;99.90
37002;DHT22;22913;51.910;8.374;2022-07-10T05:34:15;14.40;99.90
37002;DHT22;22913;51.910;8.374;2022-07-10T05:37:00;14.50;99.90
37002;DHT22;22913;51.910;8.374;2022-07-10T05:39:46;14.50;99.90
37002;DHT22;22913;51.910;8.374;2022-07-10T05:42:31;14.50;99.90
37002;DHT22;22913;51.910;8.374;2022-07-10T05:45:17;14.60;99.90
37002;DHT22;22913;51.910;8.374;2022-07-10T05:48:05;14.60;99.90
37002;DHT22;22913;51.910;8.374;2022-07-10T05:50:51;14.60;99.90
37002;DHT22;22913;51.910;8.374;2022-07-10T05:53:37;14.70;99.90
37002;DHT22;22913;51.910;8.374;2022-07-10T05:56:23;14.80;99.90
37002;DHT22;22913;51.910;8.374;2022-07-10T05:59:08;14.80;99.90
37002;DHT22;22913;51.910;8.374;2022-07-10T06:01:55;14.90;99.90
37002;DHT22;22913;51.910;8.374;2022-07-10T06:04:42;14.80;99.90
37002;DHT22;22913;51.910;8.374;2022-07-10T06:07:28;15.00;99.90
37002;DHT22;22913;51.910;8.374;2022-07-10T06:10:14;14.90;99.90
37002;DHT22;22913;51.910;8.374;2022-07-10T06:12:59;14.90;99.90
37002;DHT22;22913;51.910;8.374;2022-07-10T06:15:45;14.90;99.90
37002;DHT22;22913;51.910;8.374;2022-07-10T06:18:31;15.00;99.90
37002;DHT22;22913;51.910;8.374;2022-07-10T06:21:19;15.10;99.90
37002;DHT22;22913;51.910;8.374;2022-07-10T06:24:06;15.10;99.90
37002;DHT22;22913;51.910;8.374;2022-07-10T06:26:52;15.20;99.90
37002;DHT22;22913;51.910;8.374;2022-07-10T06:29:37;15.30;99.90
37002;DHT22;22913;51.910;8.374;2022-07-10T06:32:24;15.30;99.90
37002;DHT22;22913;51.910;8.374;2022-07-10T06:35:10;15.30;99.90
37002;DHT22;22913;51.910;8.374;2022-07-10T06:37:57;15.30;99.90
37002;DHT22;22913;51.910;8.374;2022-07-10T06:40:43;15.40;99.90
37002;DHT22;22913;51.910;8.374;2022-07-10T06:43:30;15.50;99.90
37002;DHT22;22913;51.910;8.374;2022-07-10T06:46:15;15.60;99.90
37002;DHT22;22913;51.910;8.374;2022-07-10T06:49:01;15.60;99.90
37002;DHT22;22913;51.910;8.374;2022-07-10T06:51:47;15.60;99.90
37002;DHT22;22913;51.910;8.374;2022-07-10T06:54:34;15.70;99.90
37002;DHT22;22913;51.910;8.374;2022-07-10T06:57:20;15.50;99.90
37002;DHT22;22913;51.910;8.374;2022-07-10T07:00:07;15.60;99.90
37002;DHT22;22913;51.910;8.374;2022-07-10T07:02:53;15.70;99.90
37002;DHT22;22913;51.910;8.374;2022-07-10T07:05:39;15.80;99.90
37002;DHT22;22913;51.910;8.374;2022-07-10T07:08:25;15.80;99.90
37002;DHT22;22913;51.910;8.374;2022-07-10T07:11:12;15.90;99.90
37002;DHT22;22913;51.910;8.374;2022-07-10T07:13:58;16.00;99.90
37002;DHT22;22913;51.910;8.374;2022-07-10T07:16:44;16.10;99.90
37002;DHT22;22913;51.910;8.374;2022-07-10T07:19:42;16.20;99.90
37002;DHT22;22913;51.910;8.374;2022-07-10T07:22:45;16.30;99.90
37002;DHT22;22913;51.910;8.374;2022-07-10T07:25:48;16.40;99.90
37002;DHT22;22913;51.910;8.374;2022-07-10T07:28:35;16.60;99.90
37002;DHT22;22913;51.910;8.374;2022-07-10T07:31:21;16.60;99.90
37002;DHT22;22913;51.910;8.374;2022-07-10T07:34:06;16.50;99.90
37002;DHT22;22913;51.910;8.374;2022-07-10T07:36:52;16.50;99.90
37002;DHT22;22913;51.910;8.374;2022-07-10T07:39:38;16.40;99.90
37002;DHT22;22913;51.910;8.374;2022-07-10T07:42:23;16.50;99.90
37002;DHT22;22913;51.910;8.374;2022-07-10T07:45:11;16.50;99.90
37002;DHT22;22913;51.910;8.374;2022-07-10T07:47:57;16.50;99.90
37002;DHT22;22913;51.910;8.374;2022-07-10T07:50:45;16.50;99.90
37002;DHT22;22913;51.910;8.374;2022-07-10T07:53:31;16.60;99.90
37002;DHT22;22913;51.910;8.374;2022-07-10T07:56:16;16.70;99.90
37002;DHT22;22913;51.910;8.374;2022-07-10T07:59:02;16.80;99.90
37002;DHT22;22913;51.910;8.374;2022-07-10T08:01:49;16.90;99.90
37002;DHT22;22913;51.910;8.374;2022-07-10T08:04:35;17.00;99.90
37002;DHT22;22913;51.910;8.374;2022-07-10T08:07:20;17.10;99.90
37002;DHT22;22913;51.910;8.374;2022-07-10T08:10:10;17.20;99.90
37002;DHT22;22913;51.910;8.374;2022-07-10T08:12:55;17.30;99.90
37002;DHT22;22913;51.910;8.374;2022-07-10T08:15:42;17.50;99.90
37002;DHT22;22913;51.910;8.374;2022-07-10T08:18:29;17.50;99.90
37002;DHT22;22913;51.910;8.374;2022-07-10T08:21:15;17.60;99.90
37002;DHT22;22913;51.910;8.374;2022-07-10T08:24:01;17.60;99.90
37002;DHT22;22913;51.910;8.374;2022-07-10T08:26:46;17.50;99.90
37002;DHT22;22913;51.910;8.374;2022-07-10T08:29:32;17.50;99.90
37002;DHT22;22913;51.910;8.374;2022-07-10T08:32:17;17.60;99.90
37002;DHT22;22913;51.910;8.374;2022-07-10T08:35:07;17.70;99.90
37002;DHT22;22913;51.910;8.374;2022-07-10T08:37:52;17.70;99.90
37002;DHT22;22913;51.910;8.374;2022-07-10T08:40:38;17.70;99.90
37002;DHT22;22913;51.910;8.374;2022-07-10T08:43:25;17.70;99.90
37002;DHT22;22913;51.910;8.374;2022-07-10T08:46:12;17.80;99.90
37002;DHT22;22913;51.910;8.374;2022-07-10T08:48:59;17.80;99.90
37002;DHT22;22913;51.910;8.374;2022-07-10T08:51:50;18.00;99.90
37002;DHT22;22913;51.910;8.374;2022-07-10T08:54:38;18.20;99.90
37002;DHT22;22913;51.910;8.374;2022-07-10T08:57:24;18.20;99.90
37002;DHT22;22913;51.910;8.374;2022-07-10T09:00:10;18.30;99.90
37002;DHT22;22913;51.910;8.374;2022-07-10T09:02:56;18.50;99.90
37002;DHT22;22913;51.910;8.374;2022-07-10T09:05:42;18.60;99.90
37002;DHT22;22913;51.910;8.374;2022-07-10T09:08:29;18.60;99.90
37002;DHT22;22913;51.910;8.374;2022-07-10T09:11:17;18.70;99.90
37002;DHT22;22913;51.910;8.374;2022-07-10T09:14:04;18.80;99.90
37002;DHT22;22913;51.910;8.374;2022-07-10T09:16:52;18.60;99.90
37002;DHT22;22913;51.910;8.374;2022-07-10T09:19:39;18.40;99.90
37002;DHT22;22913;51.910;8.374;2022-07-10T09:22:25;18.50;99.90
37002;DHT22;22913;51.910;8.374;2022-07-10T09:25:13;18.60;99.90
37002;DHT22;22913;51.910;8.374;2022-07-10T09:28:00;18.70;99.90
37002;DHT22;22913;51.910;8.374;2022-07-10T09:30:49;18.90;99.90
37002;DHT22;22913;51.910;8.374;2022-07-10T09:33:35;19.10;99.90
37002;DHT22;22913;51.910;8.374;2022-07-10T09:36:21;19.20;99.90
37002;DHT22;22913;51.910;8.374;2022-07-10T09:39:08;19.30;99.90
37002;DHT22;22913;51.910;8.374;2022-07-10T09:41:55;19.20;99.90
37002;DHT22;22913;51.910;8.374;2022-07-10T09:44:40;19.00;99.90
37002;DHT22;22913;51.910;8.374;2022-07-10T09:47:26;18.80;99.90
37002;DHT22;22913;51.910;8.374;2022-07-10T09:50:23;18.70;99.90
37002;DHT22;22913;51.910;8.374;2022-07-10T09:53:09;18.60;99.90
37002;DHT22;22913;51.910;8.374;2022-07-10T09:55:56;18.50;99.90
37002;DHT22;22913;51.910;8.374;2022-07-10T09:58:52;18.60;99.90
37002;DHT22;22913;51.910;8.374;2022-07-10T10:01:43;18.60;99.90
37002;DHT22;22913;51.910;8.374;2022-07-10T10:04:30;18.70;99.90
37002;DHT22;22913;51.910;8.374;2022-07-10T10:07:19;18.70;99.90
37002;DHT22;22913;51.910;8.374;2022-07-10T10:10:07;18.60;99.90
37002;DHT22;22913;51.910;8.374;2022-07-10T10:12:59;18.50;99.90
37002;DHT22;22913;51.910;8.374;2022-07-10T10:15:51;18.40;99.90
37002;DHT22;22913;51.910;8.374;2022-07-10T10:18:37;18.40;99.90
37002;DHT22;22913;51.910;8.374;2022-07-10T10:21:47;18.40;99.90
37002;DHT22;22913;51.910;8.374;2022-07-10T10:24:32;18.30;99.90
37002;DHT22;22913;51.910;8.374;2022-07-10T10:27:20;18.40;99.90
37002;DHT22;22913;51.910;8.374;2022-07-10T10:30:07;18.30;99.90
37002;DHT22;22913;51.910;8.374;2022-07-10T10:32:54;18.10;99.90
37002;DHT22;22913;51.910;8.374;2022-07-10T10:35:44;18.10;99.90
37002;DHT22;22913;51.910;8.374;2022-07-10T10:39:00;18.00;99.90
37002;DHT22;22913;51.910;8.374;2022-07-10T10:41:51;18.00;99.90
37002;DHT22;22913;51.910;8.374;2022-07-10T10:44:37;17.90;99.90
37002;DHT22;22913;51.910;8.374;2022-07-10T10:47:23;17.90;99.90
37002;DHT22;22913;51.910;8.374;2022-07-10T10:50:41;17.80;99.90
37002;DHT22;22913;51.910;8.374;2022-07-10T10:53:28;17.60;99.90
37002;DHT22;22913;51.910;8.374;2022-07-10T10:56:22;17.70;99.90
37002;DHT22;22913;51.910;8.374;2022-07-10T10:59:45;17.80;99.90
37002;DHT22;22913;51.910;8.374;2022-07-10T11:02:32;17.90;99.90
37002;DHT22;22913;51.910;8.374;2022-07-10T11:05:43;18.00;99.90
37002;DHT22;22913;51.910;8.374;2022-07-10T11:08:36;17.90;99.90
37002;DHT22;22913;51.910;8.374;2022-07-10T11:11:38;17.90;99.90
37002;DHT22;22913;51.910;8.374;2022-07-10T11:14:26;17.90;99.90
37002;DHT22;22913;51.910;8.374;2022-07-10T11:17:12;17.90;99.90
37002;DHT22;22913;51.910;8.374;2022-07-10T11:19:58;18.00;99.90
37002;DHT22;22913;51.910;8.374;2022-07-10T11:22:56;18.00;99.90
37002;DHT22;22913;51.910;8.374;2022-07-10T11:25:49;18.00;99.90
37002;DHT22;22913;51.910;8.374;2022-07-10T11:28:50;18.00;99.90
37002;DHT22;22913;51.910;8.374;2022-07-10T11:31:36;18.00;99.90
37002;DHT22;22913;51.910;8.374;2022-07-10T11:34:34;18.00;99.90
37002;DHT22;22913;51.910;8.374;2022-07-10T11:37:20;18.00;99.90
37002;DHT22;22913;51.910;8.374;2022-07-10T11:40:12;18.10;99.90
37002;DHT22;22913;51.910;8.374;2022-07-10T11:42:58;18.00;99.90
37002;DHT22;22913;51.910;8.374;2022-07-10T11:45:45;17.90;99.90
37002;DHT22;22913;51.910;8.374;2022-07-10T11:48:38;18.00;99.90
37002;DHT22;22913;51.910;8.374;2022-07-10T11:51:25;17.90;99.90
37002;DHT22;22913;51.910;8.374;2022-07-10T11:54:13;17.90;99.90
37002;DHT22;22913;51.910;8.374;2022-07-10T11:57:06;17.70;99.90
37002;DHT22;22913;51.910;8.374;2022-07-10T11:59:52;17.50;99.90
37002;DHT22;22913;51.910;8.374;2022-07-10T12:02:38;17.40;99.90
37002;DHT22;22913;51.910;8.374;2022-07-10T12:05:31;17.40;99.90
37002;DHT22;22913;51.910;8.374;2022-07-10T12:08:16;17.40;99.90
37002;DHT22;22913;51.910;8.374;2022-07-10T12:11:11;17.30;99.90
37002;DHT22;22913;51.910;8.374;2022-07-10T12:14:11;17.30;99.90
37002;DHT22;22913;51.910;8.374;2022-07-10T12:16:57;17.10;99.90
37002;DHT22;22913;51.910;8.374;2022-07-10T12:19:43;17.10;99.90
37002;DHT22;22913;51.910;8.374;2022-07-10T12:22:30;17.20;99.90
37002;DHT22;22913;51.910;8.374;2022-07-10T12:25:16;17.30;99.90
37002;DHT22;22913;51.910;8.374;2022-07-10T12:28:02;17.30;99.90
37002;DHT22;22913;51.910;8.374;2022-07-10T12:30:49;17.30;99.90
37002;DHT22;22913;51.910;8.374;2022-07-10T12:33:35;17.30;99.90
37002;DHT22;22913;51.910;8.374;2022-07-10T12:36:20;17.20;99.90
37002;DHT22;22913;51.910;8.374;2022-07-10T12:39:07;17.20;99.90
37002;DHT22;22913;51.910;8.374;2022-07-10T12:41:57;17.20;99.90
37002;DHT22;22913;51.910;8.374;2022-07-10T12:44:44;17.30;99.90
37002;DHT22;22913;51.910;8.374;2022-07-10T12:47:43;17.40;99.90
37002;DHT22;22913;51.910;8.374;2022-07-10T12:50:29;17.40;99.90
37002;DHT22;22913;51.910;8.374;2022-07-10T12:53:14;17.40;99.90
37002;DHT22;22913;51.910;8.374;2022-07-10T12:56:00;17.30;99.90
37002;DHT22;22913;51.910;8.374;2022-07-10T12:58:46;17.30;99.90
37002;DHT22;22913;51.910;8.374;2022-07-10T13:01:42;17.20;99.90
37002;DHT22;22913;51.910;8.374;2022-07-10T13:04:30;17.10;99.90
37002;DHT22;22913;51.910;8.374;2022-07-10T13:07:16;17.30;99.90
37002;DHT22;22913;51.910;8.374;2022-07-10T13:10:03;17.50;99.90
37002;DHT22;22913;51.910;8.374;2022-07-10T13:12:49;17.80;99.90
37002;DHT22;22913;51.910;8.374;2022-07-10T13:15:35;17.90;99.90
37002;DHT22;22913;51.910;8.374;2022-07-10T13:18:24;17.90;99.90
37002;DHT22;22913;51.910;8.374;2022-07-10T13:21:12;17.90;99.90
37002;DHT22;22913;51.910;8.374;2022-07-10T13:23:57;18.00;99.90
37002;DHT22;22913;51.910;8.374;2022-07-10T13:26:43;18.10;99.90
37002;DHT22;22913;51.910;8.374;2022-07-10T13:29:29;18.00;99.90
37002;DHT22;22913;51.910;8.374;2022-07-10T13:32:15;18.10;99.90
37002;DHT22;22913;51.910;8.374;2022-07-10T13:35:01;18.30;99.90
37002;DHT22;22913;51.910;8.374;2022-07-10T13:37:48;18.40;99.90
37002;DHT22;22913;51.910;8.374;2022-07-10T13:40:35;18.50;99.90
37002;DHT22;22913;51.910;8.374;2022-07-10T13:43:21;18.70;99.90
37002;DHT22;22913;51.910;8.374;2022-07-10T13:46:11;18.60;99.90
37002;DHT22;22913;51.910;8.374;2022-07-10T13:48:56;18.60;99.90
37002;DHT22;22913;51.910;8.374;2022-07-10T13:51:42;18.60;99.90
37002;DHT22;22913;51.910;8.374;2022-07-10T13:54:29;18.70;99.90
37002;DHT22;22913;51.910;8.374;2022-07-10T13:57:15;18.80;99.90
37002;DHT22;22913;51.910;8.374;2022-07-10T14:00:01;18.80;99.90
37002;DHT22;22913;51.910;8.374;2022-07-10T14:02:46;18.70;99.90
37002;DHT22;22913;51.910;8.374;2022-07-10T14:05:32;18.90;99.90
37002;DHT22;22913;51.910;8.374;2022-07-10T14:08:18;18.90;99.90
37002;DHT22;22913;51.910;8.374;2022-07-10T14:11:06;18.90;99.90
37002;DHT22;22913;51.910;8.374;2022-07-10T14:13:52;19.00;99.90
37002;DHT22;22913;51.910;8.374;2022-07-10T14:16:37;18.90;99.90
37002;DHT22;22913;51.910;8.374;2022-07-10T14:19:23;18.80;99.90
37002;DHT22;22913;51.910;8.374;2022-07-10T14:22:11;18.80;99.90
37002;DHT22;22913;51.910;8.374;2022-07-10T14:24:57;18.50;99.90
37002;DHT22;22913;51.910;8.374;2022-07-10T14:27:46;18.40;99.90
37002;DHT22;22913;51.910;8.374;2022-07-10T14:30:32;18.40;99.90
37002;DHT22;22913;51.910;8.374;2022-07-10T14:33:18;18.30;99.90
37002;DHT22;22913;51.910;8.374;2022-07-10T14:36:04;18.40;99.90
37002;DHT22;22913;51.910;8.374;2022-07-10T14:38:51;18.40;99.90
37002;DHT22;22913;51.910;8.374;2022-07-10T14:41:37;18.40;99.90
37002;DHT22;22913;51.910;8.374;2022-07-10T14:44:24;18.50;99.90
37002;DHT22;22913;51.910;8.374;2022-07-10T14:47:10;18.50;99.90
37002;DHT22;22913;51.910;8.374;2022-07-10T14:49:58;18.50;99.90
37002;DHT22;22913;51.910;8.374;2022-07-10T14:53:01;18.70;99.90
37002;DHT22;22913;51.910;8.374;2022-07-10T14:55:49;18.80;99.90
37002;DHT22;22913;51.910;8.374;2022-07-10T14:58:34;18.90;99.90
37002;DHT22;22913;51.910;8.374;2022-07-10T15:01:21;18.90;99.90
37002;DHT22;22913;51.910;8.374;2022-07-10T15:04:07;19.00;99.90
37002;DHT22;22913;51.910;8.374;2022-07-10T15:06:53;18.90;99.90
37002;DHT22;22913;51.910;8.374;2022-07-10T15:09:38;18.90;99.90
37002;DHT22;22913;51.910;8.374;2022-07-10T15:12:24;19.00;99.90
37002;DHT22;22913;51.910;8.374;2022-07-10T15:15:10;19.00;99.90
37002;DHT22;22913;51.910;8.374;2022-07-10T15:17:57;19.10;99.90
37002;DHT22;22913;51.910;8.374;2022-07-10T15:20:42;19.00;99.90
37002;DHT22;22913;51.910;8.374;2022-07-10T15:23:28;19.00;99.90
37002;DHT22;22913;51.910;8.374;2022-07-10T15:26:14;18.80;99.90
37002;DHT22;22913;51.910;8.374;2022-07-10T15:29:01;18.70;99.90
37002;DHT22;22913;51.910;8.374;2022-07-10T15:31:47;18.80;99.90
37002;DHT22;22913;51.910;8.374;2022-07-10T15:34:34;18.70;99.90
37002;DHT22;22913;51.910;8.374;2022-07-10T15:37:20;18.70;99.90
37002;DHT22;22913;51.910;8.374;2022-07-10T15:40:07;18.60;99.90
37002;DHT22;22913;51.910;8.374;2022-07-10T15:42:52;18.60;99.90
37002;DHT22;22913;51.910;8.374;2022-07-10T15:45:38;18.40;99.90
37002;DHT22;22913;51.910;8.374;2022-07-10T15:48:24;18.20;99.90
37002;DHT22;22913;51.910;8.374;2022-07-10T15:51:11;18.20;99.90
37002;DHT22;22913;51.910;8.374;2022-07-10T15:53:59;18.20;99.90
37002;DHT22;22913;51.910;8.374;2022-07-10T15:56:44;18.30;99.90
37002;DHT22;22913;51.910;8.374;2022-07-10T15:59:30;18.30;99.90
37002;DHT22;22913;51.910;8.374;2022-07-10T16:02:16;18.30;99.90
37002;DHT22;22913;51.910;8.374;2022-07-10T16:05:02;18.20;99.90
37002;DHT22;22913;51.910;8.374;2022-07-10T16:07:49;18.30;99.90
37002;DHT22;22913;51.910;8.374;2022-07-10T16:10:36;18.20;99.90
37002;DHT22;22913;51.910;8.374;2022-07-10T16:13:22;18.20;99.90
37002;DHT22;22913;51.910;8.374;2022-07-10T16:16:08;18.10;99.90
37002;DHT22;22913;51.910;8.374;2022-07-10T16:18:53;18.10;99.90
37002;DHT22;22913;51.910;8.374;2022-07-10T16:21:39;18.10;99.90
37002;DHT22;22913;51.910;8.374;2022-07-10T16:24:26;18.20;99.90
37002;DHT22;22913;51.910;8.374;2022-07-10T16:27:12;18.20;99.90
37002;DHT22;22913;51.910;8.374;2022-07-10T16:29:58;18.20;99.90
37002;DHT22;22913;51.910;8.374;2022-07-10T16:32:44;18.20;99.90
37002;DHT22;22913;51.910;8.374;2022-07-10T16:35:30;18.10;99.90
37002;DHT22;22913;51.910;8.374;2022-07-10T16:38:16;18.10;99.90
37002;DHT22;22913;51.910;8.374;2022-07-10T16:41:03;18.10;99.90
37002;DHT22;22913;51.910;8.374;2022-07-10T16:43:49;18.10;99.90
37002;DHT22;22913;51.910;8.374;2022-07-10T16:46:35;18.20;99.90
37002;DHT22;22913;51.910;8.374;2022-07-10T16:49:20;18.10;99.90
37002;DHT22;22913;51.910;8.374;2022-07-10T16:52:06;18.20;99.90
37002;DHT22;22913;51.910;8.374;2022-07-10T16:54:52;18.20;99.90
37002;DHT22;22913;51.910;8.374;2022-07-10T16:57:41;18.30;99.90
37002;DHT22;22913;51.910;8.374;2022-07-10T17:00:26;18.20;99.90
37002;DHT22;22913;51.910;8.374;2022-07-10T17:03:12;18.30;99.90
37002;DHT22;22913;51.910;8.374;2022-07-10T17:05:57;18.30;99.90
37002;DHT22;22913;51.910;8.374;2022-07-10T17:08:43;18.10;99.90
37002;DHT22;22913;51.910;8.374;2022-07-10T17:11:29;18.10;99.90
37002;DHT22;22913;51.910;8.374;2022-07-10T17:14:16;18.00;99.90
37002;DHT22;22913;51.910;8.374;2022-07-10T17:17:02;18.00;99.90
37002;DHT22;22913;51.910;8.374;2022-07-10T17:19:48;18.00;99.90
37002;DHT22;22913;51.910;8.374;2022-07-10T17:22:34;17.90;99.90
37002;DHT22;22913;51.910;8.374;2022-07-10T17:25:20;17.90;99.90
37002;DHT22;22913;51.910;8.374;2022-07-10T17:28:06;17.80;99.90
37002;DHT22;22913;51.910;8.374;2022-07-10T17:30:53;17.80;99.90
37002;DHT22;22913;51.910;8.374;2022-07-10T17:33:39;17.80;99.90
37002;DHT22;22913;51.910;8.374;2022-07-10T17:36:24;17.70;99.90